Have a Safe July 4th! 

Flight Track Log - Related Links

Times and Time Zones

All times are in EDT time to prevent confusion due to time zone crossing. See the EJA929 flight status page for this flight to view local times or setup timezone preferences in your user account.

Time Position Orientation Groundspeed Altitude Reporting Facility
EDT Latitude Longitude Course Direction KTS MPH feet Rate Location/Type
Fri 08:52:00 AM 40.0318 -112.0674 201° Southwest  Level FlightAware Approximate
Fri 08:53:00 AM 39.9283 -112.1359 201° Southwest  Level FlightAware Approximate
Fri 08:54:00 AM 39.8189 -112.1905 201° Southwest  Level FlightAware Approximate
Fri 08:55:00 AM 39.7113 -112.2507 204° Southwest  Level FlightAware Approximate
Fri 08:56:00 AM 39.6048 -112.3139 205° Southwest  Level FlightAware Approximate
Fri 08:56:30 AM 40.4358 -111.4942 203° Southwest 201 231 9,800  Level Salt Lake Center
Fri 08:57:00 AM 39.4988 -112.3786 207° Southwest  Level FlightAware Approximate
Fri 08:57:30 AM 40.3831 -111.5061 190° South 220 253 13,200  Level Salt Lake Center
Fri 08:58:00 AM 39.3911 -112.4378 201° Southwest  Level FlightAware Approximate
Fri 08:58:31 AM 40.3083 -111.5272 192° South 295 339 15,500  Level Salt Lake Center
Fri 08:59:00 AM 39.2818 -112.4924 201° Southwest  Level FlightAware Approximate
Fri 08:59:32 AM 40.2156 -111.5811 204° Southwest 378 435 17,500  Level Salt Lake Center
Fri 09:00:00 AM 39.1770 -112.5589 210° Southwest  Level FlightAware Approximate
Fri 09:00:33 AM 40.1178 -111.6583 211° Southwest 414 476 19,200  Level Salt Lake Center
Fri 09:01:00 AM 39.0688 -112.6118 203° Southwest  Level FlightAware Approximate
Fri 09:01:34 AM 40.0167 -111.7394 212° Southwest 428 493 20,900  Level Salt Lake Center
Fri 09:02:35 AM 39.9133 -111.8219 211° Southwest 436 502 22,500 1,820 Climbing Salt Lake Center
Fri 09:03:36 AM 39.7886 -111.9206 211° Southwest 437 503 24,600 1,869 Climbing Salt Lake Center
Fri 09:04:37 AM 39.6847 -112.0033 212° Southwest 438 504 26,300 1,672 Climbing Salt Lake Center
Fri 09:05:38 AM 39.5783 -112.0847 211° Southwest 443 510 28,000 1,672 Climbing Salt Lake Center
Fri 09:06:39 AM 39.4725 -112.1686 211° Southwest 447 514 29,700 1,672 Climbing Salt Lake Center
Fri 09:07:40 AM 39.3650 -112.2517 211° Southwest 450 518 31,400 1,686 Climbing Salt Lake Center
Fri 09:08:40 AM 39.2594 -112.3336 211° Southwest 444 511 33,100 1,686 Climbing Salt Lake Center
Fri 09:09:41 AM 39.1531 -112.4147 211° Southwest 449 517 34,800 1,672 Climbing Salt Lake Center
Fri 09:10:42 AM 39.0442 -112.4992 211° Southwest 457 526 36,500 1,475 Climbing Salt Lake Center
Fri 09:11:43 AM 38.9339 -112.5828 211° Southwest 461 531 37,800 1,328 Climbing Salt Lake Center
Fri 09:12:44 AM 38.8228 -112.6667 210° Southwest 464 534 39,200 1,033 Climbing Salt Lake Center
Fri 09:13:45 AM 38.7094 -112.7528 211° Southwest 473 544 39,900 390 Climbing Salt Lake Center
Fri 09:14:47 AM 38.5731 -112.8544 210° Southwest 475 547 40,000 49 Climbing Salt Lake Center
Fri 09:15:48 AM 38.4594 -112.9397 210° Southwest 476 548 40,000  Level Salt Lake Center
Fri 09:16:49 AM 38.3467 -113.0242 210° Southwest 474 545 40,000  Level Salt Lake Center
Fri 09:17:50 AM 38.2369 -113.1147 213° Southwest 472 543 40,000  Level Salt Lake Center
Fri 09:18:51 AM 38.1275 -113.2042 213° Southwest 471 542 40,000  Level Salt Lake Center
Fri 09:19:52 AM 38.0172 -113.2933 213° Southwest 472 543 40,000  Level Salt Lake Center
Fri 09:20:53 AM 37.9072 -113.3819 212° Southwest 472 543 40,000  Level Salt Lake Center
Fri 09:21:54 AM 37.7981 -113.4692 212° Southwest 470 541 40,000  Level Salt Lake Center
Fri 09:22:55 AM 37.6867 -113.5567 212° Southwest 474 545 40,000  Level Salt Lake Center
Fri 09:23:41 AM 37.6006 -113.6258 212° Southwest 469 540 40,000  Level Los Angeles Center
Fri 09:24:42 AM 37.4861 -113.7119 211° Southwest 477 549 40,000  Level Los Angeles Center
Fri 09:25:44 AM 37.3539 -113.8175 212° Southwest 471 542 40,000  Level Los Angeles Center
Fri 09:26:45 AM 37.2539 -113.8978 213° Southwest 468 539 40,000  Level Los Angeles Center
Fri 09:27:46 AM 37.1433 -113.9858 212° Southwest 468 539 40,000  Level Los Angeles Center
Fri 09:28:47 AM 37.0522 -114.0544 211° Southwest 471 542 40,000  Level Los Angeles Center
Fri 09:29:48 AM 36.9167 -114.1572 211° Southwest 473 544 40,000  Level Los Angeles Center
Fri 09:30:50 AM 36.8039 -114.2442 212° Southwest 475 547 40,000  Level Los Angeles Center
Fri 09:31:51 AM 36.6922 -114.3289 211° Southwest 470 541 40,000  Level Los Angeles Center
Fri 09:32:52 AM 36.5575 -114.4328 212° Southwest 471 542 40,000  Level Los Angeles Center
Fri 09:33:53 AM 36.4439 -114.5189 211° Southwest 474 545 40,000  Level Los Angeles Center
Fri 09:34:55 AM 36.3300 -114.6061 212° Southwest 477 549 40,000 -732 Level Los Angeles Center
Fri 09:35:56 AM 36.2156 -114.6942 212° Southwest 479 551 38,500 -1,672 Descending Los Angeles Center
Fri 09:36:57 AM 36.0961 -114.7844 211° Southwest 493 567 36,600 -1,659 Descending Los Angeles Center
Fri 09:37:59 AM 35.9803 -114.8833 215° Southwest 501 577 35,100 -1,268 Descending Los Angeles Center
Fri 09:39:00 AM 35.8858 -115.0094 227° Southwest 496 571 34,000 -541 Descending Los Angeles Center
Fri 09:40:01 AM 35.7919 -115.1378 228° Southwest 500 575 34,000  Level Los Angeles Center
Fri 09:41:03 AM 35.6978 -115.2683 228° Southwest 507 583 34,000  Level Los Angeles Center
Fri 09:42:04 AM 35.6211 -115.3711 227° Southwest 508 585 34,000  Level Los Angeles Center
Fri 09:43:06 AM 35.5053 -115.5269 228° Southwest 512 589 34,000  Level Los Angeles Center
Fri 09:44:07 AM 35.4150 -115.6494 228° Southwest 510 587 34,000  Level Los Angeles Center
Fri 09:45:08 AM 35.2986 -115.8042 227° Southwest 513 590 34,000  Level Los Angeles Center
Fri 09:46:10 AM 35.2011 -115.9314 227° Southwest 513 590 34,000 -98 Level Los Angeles Center
Fri 09:47:11 AM 35.1042 -116.0611 228° Southwest 515 593 33,800 -1,366 Descending Los Angeles Center
Fri 09:48:13 AM 35.0044 -116.1914 227° Southwest 523 602 31,200 -3,073 Descending Los Angeles Center
Fri 09:49:14 AM 34.9047 -116.3219 227° Southwest 527 606 27,500 -3,463 Descending Los Angeles Center
Fri 09:50:16 AM 34.8131 -116.4511 229° Southwest 511 588 24,100 -2,323 Descending Los Angeles Center
Fri 09:51:18 AM 34.7825 -116.6086 257° West 487 560 22,700 -1,024 Descending Los Angeles Center
Fri 09:52:19 AM 34.7675 -116.7681 264° West 475 547 22,000 -341 Descending Los Angeles Center
Fri 09:53:21 AM 34.7514 -116.9228 263° West 463 533 22,000 -439 Level Los Angeles Center
Fri 09:54:22 AM 34.7325 -117.1103 263° West 464 534 21,100 -1,268 Descending Los Angeles Center
Fri 09:55:24 AM 34.7164 -117.2689 263° West 469 540 19,400 -1,887 Descending Los Angeles Center
Fri 09:56:26 AM 34.6994 -117.4244 262° West 464 534 17,200 -2,146 Descending Los Angeles Center
Fri 09:57:27 AM 34.6836 -117.5772 263° West 455 524 15,000 -2,146 Descending Los Angeles Center
Fri 09:58:29 AM 34.6631 -117.7228 260° West 435 501 12,800 -1,116 Descending Los Angeles Center
Fri 10:00:00 AM 34.6429 -117.9140 262° West  Level FlightAware Approximate
Fri 10:03:38 AM 34.5667 -118.3500 90° East 284 327 8,100  Level Southern California TRACON
Fri 10:05:00 AM 34.5240 -118.5205 253° West  Level FlightAware Approximate
Fri 10:05:45 AM 34.5000 -118.5000 253° West 265 305 7,100  Level Southern California TRACON
Fri 10:06:39 AM 34.4333 -118.5333 202° Southwest 274 315 6,600 -1,053 Descending Southern California TRACON
Fri 10:07:00 AM 34.2007 -118.3587 165° South  Level Estimated
Fri 10:07:39 AM 34.3500 -118.5500 189° South 271 312 5,100  Level Southern California TRACON
Fri 10:08:00 AM 34.2007 -118.3587 158° South  Level Estimated
Fri 10:08:46 AM 34.2833 -118.5500 180° South 234 269 4,800  Level Southern California TRACON
Fri 10:09:00 AM 34.2007 -118.3587 90° East  Level Estimated
Fri 10:09:40 AM 34.2333 -118.5333 165° South 219 252 3,600  Level Southern California TRACON
Fri 10:10:40 AM 34.2000 -118.4833 129° Southeast 157 181 2,800 -789 Descending Southern California TRACON
Fri 10:11:34 AM 34.2000 -118.4500 90° East 127 146 2,100 -694 Descending Southern California TRACON
Fri 10:12:41 AM 34.2000 -118.4000 90° East 132 152 1,400 -627 Descending Southern California TRACON
Fri 10:14:00 AM 34.2000 -118.3500 90° East  Level FlightAware Approximate
Fri 10:21:00 AM 34.2007 -118.3587 90° East  Level Estimated

Login

Don't have an account? Register now (free) for customized features, flight alerts, and more!